createdAt,value
2023-03-17T00:01:40.301Z,1.65
2023-03-17T00:06:36.462Z,1.75
2023-03-17T00:11:37.748Z,1.42
2023-03-17T00:16:31.165Z,1.80
2023-03-17T00:21:29.946Z,1.60
2023-03-17T00:26:21.884Z,1.50
2023-03-17T00:31:30.326Z,1.85
2023-03-17T00:36:28.955Z,2.05
2023-03-17T00:41:21.377Z,1.30
2023-03-17T00:46:17.651Z,1.83
2023-03-17T00:51:09.217Z,1.38
2023-03-17T00:56:03.185Z,1.10
2023-03-17T01:00:56.923Z,1.70
2023-03-17T01:05:48.453Z,1.20
2023-03-17T01:10:41.194Z,1.00
2023-03-17T01:15:36.365Z,1.90
2023-03-17T01:20:34.890Z,1.98
2023-03-17T01:25:28.142Z,3.22
2023-03-17T01:30:31.878Z,0.98
2023-03-17T01:35:26.348Z,1.80
2023-03-17T01:40:25.881Z,1.67
2023-03-17T01:45:46.775Z,1.30
2023-03-17T01:50:43.148Z,2.25
2023-03-17T01:55:40.499Z,1.10
2023-03-17T02:00:32.686Z,1.98
2023-03-17T02:05:27.518Z,1.60
2023-03-17T02:10:23.372Z,1.50
2023-03-17T02:15:17.373Z,2.10
2023-03-17T02:20:32.695Z,1.67
2023-03-17T02:25:31.158Z,1.90
2023-03-17T02:30:28.980Z,1.15
2023-03-17T02:35:21.373Z,1.90
2023-03-17T02:40:17.072Z,1.67
2023-03-17T02:45:15.697Z,2.20
2023-03-17T02:50:14.490Z,1.35
2023-03-17T02:55:11.809Z,1.38
2023-03-17T03:00:03.599Z,1.60
2023-03-17T03:04:58.971Z,1.77
2023-03-17T03:09:52.199Z,1.35
2023-03-17T03:14:43.492Z,2.10
2023-03-17T03:19:35.096Z,1.23
2023-03-17T03:24:38.849Z,1.30
2023-03-17T03:29:43.049Z,1.33
2023-03-17T03:34:46.027Z,0.90
2023-03-17T03:39:43.802Z,1.87
2023-03-17T03:44:34.295Z,1.98
2023-03-17T03:49:27.156Z,1.27
2023-03-17T03:54:17.068Z,1.63
2023-03-17T03:59:15.722Z,1.60
2023-03-17T04:04:17.160Z,1.20
2023-03-17T04:09:14.657Z,1.90
2023-03-17T04:14:10.286Z,2.23
2023-03-17T04:19:39.386Z,1.20
2023-03-17T04:24:37.881Z,2.05
2023-03-17T04:29:34.608Z,1.15
2023-03-17T04:34:39.856Z,1.30
2023-03-17T04:39:33.457Z,1.63
2023-03-17T04:44:25.262Z,2.08
2023-03-17T04:49:20.698Z,1.53
2023-03-17T04:54:19.497Z,1.70
2023-03-17T04:59:14.552Z,2.28
2023-03-17T05:04:05.764Z,1.10
2023-03-17T05:08:58.707Z,1.27
2023-03-17T05:14:00.453Z,1.60
2023-03-17T05:18:57.749Z,1.95
2023-03-17T05:23:58.464Z,1.03
2023-03-17T05:28:50.409Z,1.70
2023-03-17T05:33:48.361Z,2.40
2023-03-17T05:38:50.885Z,1.92
2023-03-17T05:43:47.081Z,0.90
2023-03-17T05:48:37.987Z,1.30
2023-03-17T05:53:37.118Z,1.30
2023-03-17T05:58:31.230Z,1.67
2023-03-17T06:03:24.116Z,2.67
2023-03-17T06:08:16.811Z,1.27
2023-03-17T06:13:11.505Z,2.65
2023-03-17T06:18:13.260Z,1.52
2023-03-17T06:23:11.956Z,1.57
2023-03-17T06:28:35.486Z,1.33
2023-03-17T06:33:26.560Z,1.55
2023-03-17T06:38:19.813Z,1.17
2023-03-17T06:43:17.601Z,1.95
2023-03-17T06:48:09.102Z,2.35
2023-03-17T06:53:07.646Z,2.22
2023-03-17T06:58:07.476Z,1.90
2023-03-17T07:03:05.285Z,1.57
2023-03-17T07:07:59.585Z,1.67
2023-03-17T07:12:49.638Z,1.42
2023-03-17T07:17:39.810Z,1.55
2023-03-17T07:22:33.411Z,1.45
2023-03-17T07:27:50.530Z,1.70
2023-03-17T07:32:44.115Z,1.83
2023-03-17T07:37:47.276Z,1.50
2023-03-17T07:42:42.702Z,2.00
2023-03-17T07:47:32.907Z,1.75
2023-03-17T07:52:23.933Z,2.10
2023-03-17T07:57:17.216Z,2.10
2023-03-17T08:02:13.507Z,1.90
2023-03-17T08:07:07.458Z,1.70
2023-03-17T08:12:02.158Z,2.28
2023-03-17T08:17:05.405Z,2.47
2023-03-17T08:22:01.327Z,2.60
2023-03-17T08:26:52.538Z,2.30
2023-03-17T08:31:46.898Z,2.80
2023-03-17T08:36:46.076Z,2.60
2023-03-17T08:41:43.621Z,2.83
2023-03-17T08:46:36.208Z,1.95
2023-03-17T08:51:31.120Z,1.95
2023-03-17T08:56:38.090Z,1.58
2023-03-17T09:01:33.024Z,2.33
2023-03-17T09:06:24.605Z,3.03
2023-03-17T09:11:20.160Z,2.43
2023-03-17T09:16:13.773Z,2.08
2023-03-17T09:21:11.043Z,2.08
2023-03-17T09:26:07.937Z,1.92
2023-03-17T09:31:11.708Z,1.83
2023-03-17T09:36:16.917Z,2.30
2023-03-17T09:41:26.303Z,3.75
2023-03-17T09:46:33.498Z,1.70
2023-03-17T09:51:34.487Z,4.47
2023-03-17T09:56:30.134Z,3.22
2023-03-17T10:01:28.931Z,3.13
2023-03-17T10:06:44.187Z,2.88
2023-03-17T10:11:46.392Z,2.63
2023-03-17T10:16:57.698Z,3.92
2023-03-17T10:22:04.114Z,5.43
2023-03-17T10:26:57.961Z,2.53
2023-03-17T10:31:50.443Z,3.00
2023-03-17T10:37:00.050Z,6.30
2023-03-17T10:42:04.445Z,3.42
2023-03-17T10:47:01.378Z,5.15
2023-03-17T10:51:58.938Z,3.10
2023-03-17T10:56:55.287Z,4.70
2023-03-17T11:01:56.895Z,2.22
2023-03-17T11:06:55.407Z,3.30
2023-03-17T11:11:52.683Z,4.78
2023-03-17T11:16:55.162Z,6.00
2023-03-17T11:22:05.417Z,3.90
2023-03-17T11:27:03.531Z,6.70
2023-03-17T11:32:13.516Z,5.95
2023-03-17T11:37:17.643Z,4.75
2023-03-17T11:42:18.462Z,4.22
2023-03-17T11:47:20.261Z,6.15
2023-03-17T11:52:28.893Z,7.35
2023-03-17T11:57:25.658Z,5.57
2023-03-17T12:02:24.909Z,9.98
2023-03-17T12:07:27.512Z,8.35
2023-03-17T12:12:31.941Z,5.80
2023-03-17T12:17:38.663Z,6.20
2023-03-17T12:22:42.954Z,6.40
2023-03-17T12:28:09.824Z,4.93
2023-03-17T12:33:17.800Z,5.88
2023-03-17T12:38:24.961Z,4.28
2023-03-17T12:44:01.143Z,6.47
2023-03-17T12:49:25.102Z,6.55
2023-03-17T12:54:30.287Z,5.90
2023-03-17T12:59:32.602Z,3.72
2023-03-17T13:04:29.418Z,4.60
2023-03-17T13:10:25.801Z,5.93
2023-03-17T13:15:34.109Z,5.15
2023-03-17T13:20:44.373Z,6.15
2023-03-17T13:25:55.479Z,6.50
2023-03-17T13:31:02.689Z,5.60
2023-03-17T13:36:39.131Z,6.40
2023-03-17T13:42:17.685Z,5.63
2023-03-17T13:47:28.704Z,5.78
2023-03-17T13:52:25.189Z,6.38
2023-03-17T13:57:35.281Z,5.53
2023-03-17T14:02:29.622Z,5.97
2023-03-17T14:07:26.890Z,5.80
2023-03-17T14:12:29.370Z,5.22
2023-03-17T14:17:45.856Z,4.40
2023-03-17T14:22:45.479Z,5.10
2023-03-17T14:27:41.992Z,4.93
2023-03-17T14:32:36.565Z,4.53
2023-03-17T14:37:31.438Z,6.28
2023-03-17T14:42:32.047Z,5.63
2023-03-17T14:47:35.984Z,5.00
2023-03-17T14:52:44.496Z,6.47
2023-03-17T14:57:42.149Z,5.67
2023-03-17T15:08:29.618Z,6.23
2023-03-17T15:13:19.900Z,3.30
2023-03-17T15:18:18.564Z,4.68
2023-03-17T15:23:24.162Z,5.20
2023-03-17T15:28:31.561Z,4.83
2023-03-17T15:33:25.939Z,5.70
2023-03-17T15:38:19.466Z,4.87
2023-03-17T15:43:09.693Z,4.60
2023-03-17T15:48:00.380Z,5.78
2023-03-17T15:53:00.219Z,4.43
2023-03-17T15:57:55.659Z,4.18
2023-03-17T16:02:54.243Z,4.87
2023-03-17T16:07:45.131Z,4.50
2023-03-17T16:12:41.687Z,3.80
2023-03-17T16:17:41.951Z,3.75
2023-03-17T16:22:44.669Z,3.30
2023-03-17T16:27:37.028Z,3.47
2023-03-17T16:32:28.685Z,3.08
2023-03-17T16:37:21.799Z,3.53
2023-03-17T16:42:25.754Z,4.03
2023-03-17T16:47:20.646Z,3.03
2023-03-17T16:52:13.326Z,3.97
2023-03-17T16:57:09.136Z,3.40
2023-03-17T17:02:19.058Z,3.67
2023-03-17T17:07:23.029Z,3.27
2023-03-17T17:12:19.587Z,3.53
2023-03-17T17:17:14.100Z,4.80
2023-03-17T17:22:10.189Z,4.20
2023-03-17T17:27:02.843Z,3.63
2023-03-17T17:31:59.140Z,3.88
2023-03-17T17:36:50.487Z,5.35
2023-03-17T17:41:40.683Z,3.58
2023-03-17T17:46:37.986Z,3.90
2023-03-17T17:51:37.983Z,3.95
2023-03-17T17:56:47.648Z,6.00
2023-03-17T18:01:44.083Z,3.38
2023-03-17T18:06:37.111Z,6.05
2023-03-17T18:11:27.233Z,5.63
2023-03-17T18:16:20.437Z,4.50
2023-03-17T18:21:11.473Z,5.80
2023-03-17T18:26:07.217Z,3.92
2023-03-17T18:31:10.876Z,4.32
2023-03-17T18:36:10.436Z,3.47
2023-03-17T18:41:15.607Z,4.20
2023-03-17T18:46:08.330Z,5.25
2023-03-17T19:59:56.567Z,6.13
2023-03-17T20:04:50.194Z,8.02
2023-03-17T20:09:42.395Z,5.50
2023-03-17T20:14:32.381Z,6.18
2023-03-17T20:19:27.910Z,5.43
2023-03-17T20:24:20.513Z,7.55
2023-03-17T20:29:24.922Z,5.75
2023-03-17T20:34:20.427Z,5.65
2023-03-17T20:39:21.438Z,7.13
2023-03-17T20:44:18.234Z,7.65
2023-03-17T20:49:10.621Z,8.98
2023-03-17T20:54:02.737Z,8.45
2023-03-17T20:59:07.488Z,9.13
2023-03-17T21:04:01.302Z,6.18
2023-03-17T21:08:58.341Z,8.32
2023-03-17T21:13:51.197Z,8.90
2023-03-17T21:18:55.318Z,7.57
2023-03-17T21:23:47.551Z,9.85
2023-03-17T21:28:41.315Z,10.95
2023-03-17T21:33:34.972Z,9.23
2023-03-17T21:38:29.921Z,11.63
2023-03-17T21:43:29.254Z,10.05
2023-03-17T21:48:22.912Z,9.15
2023-03-17T21:53:17.768Z,9.07
2023-03-17T21:58:16.262Z,9.07
2023-03-17T22:03:17.788Z,9.45
2023-03-17T22:08:14.732Z,11.05
2023-03-17T22:13:06.373Z,11.05
2023-03-17T22:18:03.278Z,10.18
2023-03-17T22:22:54.461Z,11.02
2023-03-17T22:27:48.692Z,10.48
2023-03-17T22:32:44.160Z,11.83
2023-03-17T22:37:42.481Z,11.82
2023-03-17T22:42:40.014Z,12.87
2023-03-17T22:47:30.564Z,10.48
2023-03-17T22:52:22.140Z,14.10
2023-03-17T22:57:26.291Z,11.53
2023-03-17T23:02:18.626Z,11.20
2023-03-17T23:07:18.713Z,13.70
2023-03-17T23:12:16.124Z,11.77
2023-03-17T23:17:10.981Z,11.85
2023-03-17T23:22:02.302Z,13.88
2023-03-17T23:26:54.760Z,14.77
2023-03-17T23:31:48.261Z,13.15
2023-03-17T23:36:46.383Z,13.30
2023-03-17T23:41:39.340Z,14.47
2023-03-17T23:46:32.103Z,15.57
2023-03-17T23:51:28.290Z,13.63
2023-03-17T23:56:27.715Z,14.37
